Time;durP1;ratioP1;P1;durP2;ratioP2;P2;SDS_P1;SDS_P2;PMS_P1;PMS_P2;Temp;Humidity;BMP_temperature;BMP_pressure;BME280_temperature;BME280_humidity;BME280_pressure;Samples;Min_cycle;Max_cycle;Signal;HPM_P1;HPM_P2
2021/12/07 00:02:07;;;;;;;3.60;1.60;;;;;;;;;;5134282;27;20456;-72
2021/12/07 00:04:35;;;;;;;4.32;1.52;;;;;;;;;;5134644;27;20433;-71
2021/12/07 00:07:02;;;;;;;3.38;1.15;;;;;;;;;;5133286;27;20047;-72
2021/12/07 00:09:29;;;;;;;4.38;1.50;;;;;;;;;;5132955;27;20448;-72
2021/12/07 00:12:03;;;;;;;3.40;1.33;;;;;;;;;;5134300;27;20468;-71
2021/12/07 00:14:37;;;;;;;3.00;1.10;;;;;;;;;;5134215;27;20047;-72
2021/12/07 00:17:04;;;;;;;3.33;1.25;;;;;;;;;;5134285;27;20450;-73
2021/12/07 00:19:32;;;;;;;3.92;1.23;;;;;;;;;;5132617;27;20391;-73
2021/12/07 00:21:59;;;;;;;4.60;1.10;;;;;;;;;;5132664;27;20023;-72
2021/12/07 00:24:26;;;;;;;2.60;0.90;;;;;;;;;;5134273;27;20384;-72
2021/12/07 00:26:53;;;;;;;4.53;1.08;;;;;;;;;;5133051;27;20027;-73
2021/12/07 00:29:21;;;;;;;4.65;1.52;;;25.20;99.90;;;;;;5132429;27;20051;-73
2021/12/07 00:31:55;;;;;;;2.67;0.80;;;25.80;99.90;;;;;;5134260;27;20388;-72
2021/12/07 00:37:14;;;;;;;1.77;0.80;;;26.20;99.90;;;;;;5122205;27;20035;-72
2021/12/07 00:39:41;;;;;;;1.67;0.90;;;26.40;99.90;;;;;;5133891;27;20424;-72
2021/12/07 00:42:09;;;;;;;3.22;0.80;;;26.60;99.90;;;;;;5134392;27;20019;-73
2021/12/07 00:44:36;;;;;;;2.83;0.80;;;26.80;99.90;;;;;;5133947;27;20096;-73
2021/12/07 00:47:03;;;;;;;3.03;0.70;;;26.50;99.90;;;;;;5133237;27;20490;-73
2021/12/07 00:49:31;;;;;;;3.22;0.80;;;27.00;99.90;;;;;;5134486;27;20054;-72
2021/12/07 00:51:58;;;;;;;4.93;0.93;;;26.90;99.90;;;;;;5132768;27;20019;-71
2021/12/07 00:54:26;;;;;;;2.35;0.90;;;27.10;99.90;;;;;;5134126;27;20030;-73
2021/12/07 00:56:56;;;;;;;4.20;0.88;;;27.30;99.90;;;;;;5134093;27;20463;-73
2021/12/07 00:59:25;;;;;;;3.00;0.80;;;27.60;99.90;;;;;;5133611;27;20072;-74
2021/12/07 01:01:53;;;;;;;2.75;1.00;;;27.50;99.90;;;;;;5134535;27;20017;-74
2021/12/07 01:04:20;;;;;;;1.98;0.70;;;27.80;99.90;;;;;;5132931;27;20578;-74
2021/12/07 01:09:40;;;;;;;3.85;1.10;;;27.80;99.90;;;;;;5134261;27;20480;-74
2021/12/07 01:25:59;;;;;;;2.47;0.90;;;28.90;99.90;;;;;;5134294;28;20057;-72
2021/12/07 01:28:41;;;;;;;1.75;0.80;;;29.20;99.90;;;;;;5134308;28;20415;-72
2021/12/07 01:41:23;;;;;;;2.13;0.73;;;29.80;99.90;;;;;;5136178;27;20419;-73
2021/12/07 01:59:59;;;;;;;4.43;1.42;;;30.00;99.90;;;;;;5137712;27;20450;-72
2021/12/07 02:02:31;;;;;;;5.25;1.20;;;30.00;99.90;;;;;;5137481;27;20050;-72
2021/12/07 02:04:59;;;;;;;6.97;1.77;;;29.60;99.90;;;;;;5137928;27;20030;-72
2021/12/07 02:07:27;;;;;;;5.15;1.60;;;29.20;99.90;;;;;;5136250;27;20026;-72
2021/12/07 02:09:58;;;;;;;5.47;1.52;;;28.80;99.90;;;;;;5137252;27;20043;-73
2021/12/07 02:12:27;;;;;;;4.05;1.30;;;28.20;99.90;;;;;;5135547;27;20027;-72
2021/12/07 02:14:55;;;;;;;6.38;1.48;;;28.70;99.90;;;;;;5135796;27;20498;-72
2021/12/07 02:17:25;;;;;;;8.30;2.08;;;28.90;99.90;;;;;;5137134;27;20030;-72
2021/12/07 02:19:52;;;;;;;;;;;29.30;99.90;;;;;;5136245;27;20118;-72
2021/12/07 02:22:19;;;;;;;6.78;1.80;;;29.30;99.90;;;;;;5135620;27;19953;-72
2021/12/07 02:24:48;;;;;;;5.30;1.48;;;28.80;99.90;;;;;;5135816;27;20028;-72
2021/12/07 02:27:15;;;;;;;6.53;1.45;;;28.40;99.90;;;;;;5137082;27;20011;-72
2021/12/07 02:29:43;;;;;;;2.95;1.27;;;28.20;99.90;;;;;;5136905;27;20029;-73
2021/12/07 02:32:10;;;;;;;4.97;1.10;;;28.50;99.90;;;;;;5136879;27;20400;-73
2021/12/07 02:34:43;;;;;;;4.30;1.35;;;28.50;99.90;;;;;;5137041;27;20023;-73
2021/12/07 02:37:11;;;;;;;4.90;1.40;;;29.10;99.90;;;;;;5135931;27;20122;-73
2021/12/07 02:39:44;;;;;;;5.50;1.35;;;29.50;99.90;;;;;;5137081;27;20027;-73
2021/12/07 02:42:11;;;;;;;5.00;1.40;;;29.60;99.90;;;;;;5136749;27;20160;-73
2021/12/07 02:44:39;;;;;;;4.55;1.27;;;29.50;99.90;;;;;;5135217;27;20080;-73
2021/12/07 02:47:06;;;;;;;3.83;1.40;;;29.30;99.90;;;;;;5136861;27;20044;-73
2021/12/07 02:49:34;;;;;;;2.85;1.20;;;29.40;99.90;;;;;;5136754;27;20019;-72
2021/12/07 02:52:03;;;;;;;6.20;1.30;;;29.20;99.90;;;;;;5134595;27;20015;-73
2021/12/07 02:54:33;;;;;;;4.90;1.10;;;29.20;99.90;;;;;;5135314;27;20053;-73
2021/12/07 02:57:01;;;;;;;3.83;1.58;;;29.30;99.90;;;;;;5136496;27;20439;-73
2021/12/07 02:59:29;;;;;;;4.32;1.70;;;29.20;99.90;;;;;;5135121;27;20483;-72
2021/12/07 03:02:06;;;;;;;3.25;1.17;;;29.20;99.90;;;;;;5134997;27;20027;-73
2021/12/07 03:04:38;;;;;;;5.38;1.60;;;29.10;99.90;;;;;;5134990;27;20372;-73
2021/12/07 03:07:16;;;;;;;3.53;0.93;;;29.20;99.90;;;;;;5135576;27;20023;-73
2021/12/07 03:28:27;;;;;;;3.40;1.13;;;27.00;99.90;;;;;;5136295;27;20436;-72
2021/12/07 03:30:55;;;;;;;5.72;1.20;;;26.70;99.90;;;;;;5136180;27;20015;-72
2021/12/07 03:33:22;;;;;;;4.15;1.10;;;26.60;99.90;;;;;;5135988;27;20079;-72
2021/12/07 03:35:49;;;;;;;4.72;1.50;;;26.70;99.90;;;;;;5135979;27;20026;-73
2021/12/07 03:38:17;;;;;;;6.40;1.30;;;26.60;99.90;;;;;;5136310;27;20420;-72
2021/12/07 03:40:45;;;;;;;4.45;1.27;;;26.70;99.90;;;;;;5135894;27;20035;-73
2021/12/07 03:43:14;;;;;;;6.25;1.13;;;27.20;99.90;;;;;;5136053;27;20383;-73
2021/12/07 03:45:42;;;;;;;4.65;1.48;;;27.70;99.90;;;;;;5135982;27;20106;-73
2021/12/07 03:48:11;;;;;;;3.03;0.98;;;28.00;99.90;;;;;;5136029;27;20016;-73
2021/12/07 03:50:39;;;;;;;6.03;1.30;;;28.30;99.90;;;;;;5135942;27;20042;-72
2021/12/07 03:53:08;;;;;;;5.03;1.52;;;28.30;99.90;;;;;;5134637;27;20596;-72
2021/12/07 03:55:35;;;;;;;6.55;1.55;;;28.30;99.90;;;;;;5135753;27;20011;-71
2021/12/07 03:58:03;;;;;;;7.63;2.05;;;28.70;99.90;;;;;;5135797;27;20020;-71
2021/12/07 04:00:34;;;;;;;5.63;1.20;;;28.80;99.90;;;;;;5135447;27;20076;-73
2021/12/07 04:03:07;;;;;;;6.78;1.08;;;28.90;99.90;;;;;;5133939;27;20129;-72
2021/12/07 04:05:44;;;;;;;6.07;1.48;;;29.00;99.90;;;;;;5135129;27;20064;-74
2021/12/07 04:08:16;;;;;;;4.10;1.17;;;28.80;99.90;;;;;;5135824;27;20015;-72
2021/12/07 04:10:44;;;;;;;5.20;1.00;;;29.20;99.90;;;;;;5135634;27;20021;-72
2021/12/07 04:13:12;;;;;;;4.63;1.10;;;29.40;99.90;;;;;;5134268;27;20019;-73
2021/12/07 04:15:40;;;;;;;5.53;1.23;;;28.90;99.90;;;;;;5135450;27;20027;-71
2021/12/07 04:18:08;;;;;;;3.47;1.02;;;28.20;99.90;;;;;;5135219;27;20388;-72
2021/12/07 04:20:36;;;;;;;5.28;1.10;;;27.70;99.90;;;;;;5133959;27;20498;-72
2021/12/07 04:23:04;;;;;;;3.47;1.17;;;27.20;99.90;;;;;;5135444;27;20073;-72
2021/12/07 04:25:32;;;;;;;4.25;1.10;;;26.90;99.90;;;;;;5135110;27;20049;-72
2021/12/07 04:28:00;;;;;;;4.57;1.20;;;26.60;99.90;;;;;;5134150;27;20027;-72
2021/12/07 04:30:35;;;;;;;3.78;1.05;;;26.10;99.90;;;;;;5134986;27;20468;-72
2021/12/07 04:33:04;;;;;;;4.65;1.05;;;25.70;99.90;;;;;;5133635;27;20080;-72
2021/12/07 04:35:31;;;;;;;5.60;1.20;;;25.40;99.90;;;;;;5135635;27;20010;-71
2021/12/07 04:37:59;;;;;;;2.95;1.10;;;25.20;99.90;;;;;;5135234;27;20019;-72
2021/12/07 04:40:30;;;;;;;4.15;0.90;;;25.10;99.90;;;;;;5134875;27;20016;-72
2021/12/07 04:42:59;;;;;;;5.35;1.52;;;24.90;99.90;;;;;;5134298;27;20094;-71
2021/12/07 04:57:37;;;;;;;4.43;1.27;;;24.20;99.90;;;;;;5134395;27;20383;-73
2021/12/07 04:59:19;;;;;;;3.30;1.50;;;23.80;99.90;;;;;;5135115;27;20071;-73
2021/12/07 05:01:47;;;;;;;4.85;1.70;;;23.70;99.90;;;;;;5134207;27;20073;-72
2021/12/07 05:04:21;;;;;;;8.63;2.20;;;23.70;99.90;;;;;;5132575;27;20054;-73
2021/12/07 05:06:51;;;;;;;5.80;2.20;;;23.70;99.90;;;;;;5134217;27;20015;-72
2021/12/07 05:09:51;;;;;;;12.27;3.63;;;23.70;99.90;;;;;;5134272;27;20068;-72
2021/12/07 05:12:40;;;;;;;10.73;3.97;;;23.40;99.90;;;;;;5133419;28;20024;-72
2021/12/07 05:39:52;;;;;;;8.75;3.03;;;21.60;99.90;;;;;;5133783;28;20042;-73
2021/12/07 05:42:22;;;;;;;4.03;2.33;;;21.60;99.90;;;;;;5133417;28;20098;-72
2021/12/07 05:44:51;;;;;;;4.68;2.47;;;21.40;99.90;;;;;;5133532;28;20011;-72
2021/12/07 05:47:18;;;;;;;6.35;2.28;;;21.50;99.90;;;;;;5133656;28;20468;-72
2021/12/07 05:49:45;;;;;;;6.80;2.47;;;21.40;99.90;;;;;;5133035;28;20019;-73
2021/12/07 05:52:13;;;;;;;4.57;1.98;;;21.50;99.90;;;;;;5133830;28;20093;-72
2021/12/07 05:54:40;;;;;;;7.85;3.25;;;21.40;99.90;;;;;;5133770;28;20027;-72
2021/12/07 05:57:08;;;;;;;4.85;2.50;;;21.40;99.90;;;;;;5134282;28;20049;-74
2021/12/07 05:59:35;;;;;;;5.18;2.53;;;21.40;99.90;;;;;;5133253;28;20028;-72
2021/12/07 06:02:03;;;;;;;7.72;3.03;;;21.40;99.90;;;;;;5133546;28;20042;-72
2021/12/07 06:04:31;;;;;;;7.68;2.67;;;21.50;99.90;;;;;;5133502;28;20031;-72
2021/12/07 06:06:59;;;;;;;7.88;3.20;;;21.40;99.90;;;;;;5131821;28;20019;-73
2021/12/07 06:09:27;;;;;;;10.65;3.20;;;21.40;99.90;;;;;;5133201;28;20020;-73
2021/12/07 06:11:54;;;;;;;6.60;2.70;;;21.40;99.90;;;;;;5133359;28;20015;-73
2021/12/07 06:14:29;;;;;;;7.90;3.10;;;21.30;99.90;;;;;;5134205;28;20024;-73
2021/12/07 06:16:57;;;;;;;8.93;3.70;;;21.40;99.90;;;;;;5132639;28;20027;-74
2021/12/07 06:19:24;;;;;;;9.70;3.40;;;21.40;99.90;;;;;;5131958;28;20489;-72
2021/12/07 06:21:51;;;;;;;6.68;3.13;;;21.40;99.90;;;;;;5133384;28;20027;-73
2021/12/07 06:24:19;;;;;;;10.32;3.40;;;21.40;99.90;;;;;;5131736;28;20020;-73
2021/12/07 06:26:47;;;;;;;8.43;3.08;;;21.40;99.90;;;;;;5131656;27;20482;-73
2021/12/07 06:29:14;;;;;;;6.80;3.03;;;21.40;99.90;;;;;;5136851;27;20392;-72
2021/12/07 06:31:42;;;;;;;7.97;2.95;;;21.40;99.90;;;;;;5135237;27;20108;-74
2021/12/07 06:34:12;;;;;;;7.55;2.80;;;21.50;99.90;;;;;;5136767;27;20384;-74
2021/12/07 06:36:40;;;;;;;6.75;3.40;;;21.40;99.90;;;;;;5136812;27;20019;-73
2021/12/07 06:39:09;;;;;;;5.97;3.17;;;21.50;99.90;;;;;;5137773;27;20071;-73
2021/12/07 06:41:38;;;;;;;6.78;3.00;;;21.60;99.90;;;;;;5135345;27;20081;-72
2021/12/07 06:44:06;;;;;;;5.13;2.75;;;21.60;99.90;;;;;;5135659;27;20524;-73
2021/12/07 06:46:34;;;;;;;7.75;3.00;;;21.50;99.90;;;;;;5136998;27;20023;-73
2021/12/07 06:49:02;;;;;;;7.30;2.42;;;21.50;99.90;;;;;;5135247;27;20027;-73
2021/12/07 06:51:29;;;;;;;5.72;2.55;;;21.50;99.90;;;;;;5135021;27;20086;-72
2021/12/07 06:53:58;;;;;;;8.57;2.65;;;21.50;99.90;;;;;;5136211;27;20023;-71
2021/12/07 06:56:28;;;;;;;3.90;2.45;;;21.60;99.90;;;;;;5136356;27;20468;-73
2021/12/07 06:58:55;;;;;;;5.72;2.95;;;21.40;99.90;;;;;;5134648;27;20035;-73
2021/12/07 07:01:23;;;;;;;5.50;2.33;;;21.40;99.90;;;;;;5134673;27;20027;-73
2021/12/07 07:03:54;;;;;;;3.00;1.85;;;21.40;99.90;;;;;;5135697;27;20055;-73
2021/12/07 07:06:21;;;;;;;3.45;1.85;;;21.20;99.90;;;;;;5135016;27;20019;-73
2021/12/07 07:08:50;;;;;;;6.38;1.95;;;21.10;99.90;;;;;;5136332;27;20387;-72
2021/12/07 07:11:19;;;;;;;5.00;2.17;;;21.00;99.90;;;;;;5136118;27;20026;-74
2021/12/07 07:13:47;;;;;;;4.50;2.38;;;21.10;99.90;;;;;;5134697;27;20060;-73
2021/12/07 07:16:15;;;;;;;11.95;8.38;;;21.10;99.90;;;;;;5136436;27;20114;-74
2021/12/07 07:18:42;;;;;;;10.15;6.45;;;21.10;99.90;;;;;;5134574;27;20035;-72
2021/12/07 07:21:10;;;;;;;25.85;23.20;;;21.20;99.90;;;;;;5135121;27;20076;-73
2021/12/07 07:23:38;;;;;;;35.10;29.92;;;21.20;99.90;;;;;;5135678;27;20028;-73
2021/12/07 07:26:06;;;;;;;8.63;6.10;;;21.20;99.90;;;;;;5135668;27;20387;-73
2021/12/07 07:28:34;;;;;;;10.77;7.78;;;21.30;99.90;;;;;;5136017;27;20023;-73
2021/12/07 07:31:04;;;;;;;7.05;3.85;;;21.20;99.90;;;;;;5134144;27;20061;-72
2021/12/07 07:33:32;;;;;;;11.07;6.55;;;21.20;99.90;;;;;;5134251;27;20030;-73
2021/12/07 07:35:59;;;;;;;4.13;2.25;;;21.20;99.90;;;;;;5135140;27;20031;-73
2021/12/07 07:38:26;;;;;;;5.35;2.53;;;21.30;99.90;;;;;;5134928;27;20075;-72
2021/12/07 07:40:54;;;;;;;4.90;3.20;;;21.20;99.90;;;;;;5134846;27;20019;-72
2021/12/07 07:43:22;;;;;;;5.50;2.75;;;21.10;99.90;;;;;;5133302;27;20076;-72
2021/12/07 07:45:51;;;;;;;4.07;1.65;;;21.20;99.90;;;;;;5134657;27;20022;-72
2021/12/07 07:48:21;;;;;;;2.72;2.33;;;21.20;99.90;;;;;;5133498;27;20024;-71
2021/12/07 07:50:51;;;;;;;3.67;1.90;;;21.30;99.90;;;;;;5134292;27;20481;-72
2021/12/07 07:53:19;;;;;;;4.65;1.80;;;21.10;99.90;;;;;;5133162;27;20023;-70
2021/12/07 07:55:47;;;;;;;2.60;1.80;;;21.10;99.90;;;;;;5134415;27;20015;-71
2021/12/07 07:58:14;;;;;;;3.63;1.42;;;21.00;99.90;;;;;;5132917;27;20130;-71
2021/12/07 08:00:43;;;;;;;2.10;1.50;;;21.00;99.90;;;;;;5134242;27;20040;-70
2021/12/07 08:03:11;;;;;;;2.25;1.35;;;21.00;99.90;;;;;;5134363;27;20454;-70
2021/12/07 08:05:38;;;;;;;2.35;2.00;;;21.00;99.90;;;;;;5134427;27;20015;-68
2021/12/07 08:08:06;;;;;;;3.30;1.60;;;21.00;99.90;;;;;;5132832;27;20023;-68
2021/12/07 08:10:34;;;;;;;3.33;2.00;;;21.00;99.90;;;;;;5134073;27;20019;-69
2021/12/07 08:13:05;;;;;;;3.40;1.73;;;20.90;99.90;;;;;;5132895;27;20027;-70
2021/12/07 08:15:38;;;;;;;2.50;1.58;;;20.90;99.90;;;;;;5134116;27;20094;-69
2021/12/07 08:18:06;;;;;;;3.80;1.70;;;20.90;99.90;;;;;;5133901;27;20068;-69
2021/12/07 08:20:34;;;;;;;3.83;1.92;;;20.80;99.90;;;;;;5133915;27;20098;-69
2021/12/07 08:23:04;;;;;;;3.78;1.45;;;20.80;99.90;;;;;;5133799;27;20042;-68
2021/12/07 08:25:32;;;;;;;;;;;20.70;99.90;;;;;;5134352;27;20056;-68
2021/12/07 08:27:59;;;;;;;1.77;1.42;;;20.70;99.90;;;;;;5133747;27;19904;-69
2021/12/07 08:30:27;;;;;;;2.95;1.80;;;20.70;99.90;;;;;;5132682;27;20110;-68
2021/12/07 08:32:54;;;;;;;3.22;1.95;;;20.70;99.90;;;;;;5132383;27;20487;-68
2021/12/07 08:35:22;;;;;;;5.63;3.03;;;20.60;99.90;;;;;;5132468;27;20502;-68
2021/12/07 08:37:50;;;;;;;4.50;2.30;;;20.60;99.90;;;;;;5133904;27;20046;-68
2021/12/07 08:40:24;;;;;;;5.85;2.88;;;20.60;99.90;;;;;;5132388;27;20114;-69
2021/12/07 08:42:52;;;;;;;3.53;2.10;;;20.60;99.90;;;;;;5132321;27;20031;-67
2021/12/07 08:45:20;;;;;;;3.60;1.88;;;20.50;99.90;;;;;;5133699;27;20055;-68
2021/12/07 08:47:48;;;;;;;4.05;1.90;;;20.50;99.90;;;;;;5133568;27;20426;-68
2021/12/07 08:50:22;;;;;;;3.45;2.80;;;20.50;99.90;;;;;;5132971;27;20027;-68
2021/12/07 08:52:51;;;;;;;8.35;3.92;;;20.40;99.90;;;;;;5133457;27;20123;-69
2021/12/07 09:00:52;;;;;;;3.90;2.20;;;20.30;99.90;;;;;;5133566;27;20034;-68
2021/12/07 09:03:21;;;;;;;3.38;1.77;;;20.30;99.90;;;;;;5131670;27;20195;-69
2021/12/07 09:05:49;;;;;;;8.57;3.25;;;20.20;99.90;;;;;;5133292;27;20038;-70
2021/12/07 09:08:16;;;;;;;6.57;3.13;;;20.20;99.90;;;;;;5133516;27;20383;-71
2021/12/07 09:10:45;;;;;;;5.82;2.80;;;20.20;99.90;;;;;;5133470;27;20020;-69
2021/12/07 09:13:12;;;;;;;7.25;2.88;;;20.20;99.90;;;;;;5133209;27;20102;-69
2021/12/07 09:15:40;;;;;;;4.35;2.35;;;20.10;99.90;;;;;;5131787;28;20093;-71
2021/12/07 09:18:08;;;;;;;4.70;2.92;;;20.10;99.90;;;;;;5133136;28;20056;-71
2021/12/07 09:20:35;;;;;;;3.72;2.33;;;20.00;99.90;;;;;;5131793;28;20019;-70
2021/12/07 09:23:03;;;;;;;6.05;2.22;;;20.00;99.90;;;;;;5133021;28;20023;-70
2021/12/07 09:25:32;;;;;;;2.72;2.22;;;20.00;99.90;;;;;;5133204;28;20102;-70
2021/12/07 09:28:00;;;;;;;4.70;2.03;;;19.90;99.90;;;;;;5132145;28;20023;-71
2021/12/07 09:30:27;;;;;;;5.38;2.70;;;19.80;99.90;;;;;;5133285;28;20387;-71
2021/12/07 09:32:54;;;;;;;5.18;2.20;;;19.80;99.90;;;;;;5133413;28;20011;-71
2021/12/07 09:35:23;;;;;;;5.18;2.50;;;19.80;99.90;;;;;;5133309;28;20023;-71
2021/12/07 09:37:53;;;;;;;3.38;2.30;;;19.80;99.90;;;;;;5133589;28;20049;-70
2021/12/07 09:40:24;;;;;;;4.65;1.92;;;19.80;99.90;;;;;;5133849;28;20031;-72
2021/12/07 09:42:53;;;;;;;4.47;2.10;;;19.80;99.90;;;;;;5132245;28;20027;-72
2021/12/07 09:45:20;;;;;;;2.65;1.98;;;19.80;99.90;;;;;;5133611;28;20039;-70
2021/12/07 09:47:48;;;;;;;4.75;2.08;;;19.80;99.90;;;;;;5132403;28;20043;-71
2021/12/07 09:50:21;;;;;;;2.63;1.88;;;19.80;99.90;;;;;;5133424;28;20487;-71
2021/12/07 09:52:49;;;;;;;3.33;2.10;;;19.80;99.90;;;;;;5131904;28;20533;-71
2021/12/07 09:55:18;;;;;;;3.30;2.15;;;19.70;99.90;;;;;;5133481;28;20034;-69
2021/12/07 09:57:47;;;;;;;3.75;2.08;;;19.80;99.90;;;;;;5133326;28;20027;-70
2021/12/07 10:00:18;;;;;;;3.67;2.35;;;19.70;99.90;;;;;;5133697;28;20035;-70
2021/12/07 10:02:46;;;;;;;3.08;2.35;;;19.80;99.90;;;;;;5133685;27;20043;-70
2021/12/07 10:05:17;;;;;;;4.50;2.15;;;19.80;99.90;;;;;;5135978;27;20349;-70
2021/12/07 10:07:46;;;;;;;5.00;2.47;;;19.70;99.90;;;;;;5136105;27;20180;-71
2021/12/07 10:10:23;;;;;;;4.75;2.58;;;19.80;99.90;;;;;;5137239;27;20091;-70
2021/12/07 10:12:51;;;;;;;3.78;2.13;;;19.80;99.90;;;;;;5137123;27;20033;-70
2021/12/07 10:15:20;;;;;;;2.10;1.90;;;19.80;99.90;;;;;;5136765;27;20031;-70
2021/12/07 10:18:24;;;;;;;2.75;1.88;;;19.70;99.90;;;;;;5137111;27;20034;-71
2021/12/07 10:20:55;;;;;;;3.08;2.35;;;19.70;99.90;;;;;;5115547;27;20332;-70
2021/12/07 10:23:33;;;;;;;4.28;2.38;;;19.60;99.90;;;;;;5135623;27;20023;-70
2021/12/07 10:26:09;;;;;;;4.50;2.10;;;19.60;99.90;;;;;;5135813;27;20118;-70
2021/12/07 10:28:44;;;;;;;3.97;2.03;;;19.60;99.90;;;;;;5135805;27;20058;-70
2021/12/07 10:31:11;;;;;;;3.60;2.60;;;19.50;99.90;;;;;;5135603;27;20027;-71
2021/12/07 10:33:42;;;;;;;6.07;2.05;;;19.40;99.90;;;;;;5137054;27;20023;-70
2021/12/07 10:36:27;;;;;;;3.40;2.10;;;19.40;99.90;;;;;;5135614;27;20031;-71
2021/12/07 10:39:06;;;;;;;3.00;2.10;;;19.30;99.90;;;;;;5137134;27;20019;-71
2021/12/07 10:41:37;;;;;;;3.63;2.00;;;19.30;99.90;;;;;;5136762;27;20027;-71
2021/12/07 10:44:06;;;;;;;6.30;2.35;;;19.30;99.90;;;;;;5135267;27;20499;-70
2021/12/07 10:46:45;;;;;;;3.08;2.20;;;19.30;99.90;;;;;;5136528;27;20047;-70
2021/12/07 10:49:29;;;;;;;4.47;2.50;;;19.30;99.90;;;;;;5136778;27;20351;-71
2021/12/07 10:52:22;;;;;;;2.40;1.90;;;19.20;99.90;;;;;;5135377;27;20369;-71
2021/12/07 10:55:10;;;;;;;4.55;2.42;;;19.20;99.90;;;;;;5135236;27;20091;-71
2021/12/07 10:57:59;;;;;;;5.53;2.10;;;19.20;99.90;;;;;;5135151;27;20476;-71
2021/12/07 11:00:44;;;;;;;3.80;2.05;;;19.20;99.90;;;;;;5136230;27;20372;-70
2021/12/07 11:03:20;;;;;;;3.60;2.13;;;19.20;99.90;;;;;;5136009;27;20043;-70
2021/12/07 11:05:51;;;;;;;2.83;1.90;;;19.20;99.90;;;;;;5136385;27;20041;-70
2021/12/07 11:08:21;;;;;;;5.65;1.98;;;19.20;99.90;;;;;;5136684;27;20137;-70
2021/12/07 11:10:50;;;;;;;4.47;2.00;;;19.20;99.90;;;;;;5136246;27;20050;-70
2021/12/07 11:13:34;;;;;;;2.88;1.70;;;19.20;99.90;;;;;;5134229;27;20023;-71
2021/12/07 11:16:10;;;;;;;4.38;2.42;;;19.20;99.90;;;;;;5134650;27;20016;-71
2021/12/07 11:18:45;;;;;;;3.03;1.75;;;19.20;99.90;;;;;;5136352;27;20048;-70
2021/12/07 11:21:16;;;;;;;2.95;2.38;;;19.20;99.90;;;;;;5134698;27;20068;-70
2021/12/07 11:23:51;;;;;;;2.88;2.40;;;19.20;99.90;;;;;;5134447;27;20023;-70
2021/12/07 11:31:42;;;;;;;3.42;2.08;;;19.10;99.90;;;;;;5135808;27;20487;-70
2021/12/07 11:34:29;;;;;;;4.20;2.30;;;19.10;99.90;;;;;;5135571;27;20049;-70
2021/12/07 11:36:56;;;;;;;2.83;2.05;;;19.00;99.90;;;;;;5135425;27;20028;-70
2021/12/07 11:39:38;;;;;;;3.42;2.08;;;19.10;99.90;;;;;;5133925;27;20023;-71
2021/12/07 11:42:20;;;;;;;4.45;1.90;;;19.10;99.90;;;;;;5135890;27;20079;-71
2021/12/07 11:44:51;;;;;;;3.70;2.03;;;19.10;99.90;;;;;;5135783;27;20043;-70
2021/12/07 11:47:25;;;;;;;7.63;2.33;;;19.10;99.90;;;;;;5135234;27;20015;-70
2021/12/07 11:49:53;;;;;;;5.50;2.22;;;19.10;99.90;;;;;;5134164;27;20027;-70
2021/12/07 11:52:20;;;;;;;6.18;2.30;;;19.00;99.90;;;;;;5135182;27;20019;-70
2021/12/07 11:54:48;;;;;;;3.78;1.90;;;19.10;99.90;;;;;;5135248;27;20032;-70
2021/12/07 11:57:18;;;;;;;5.72;1.98;;;19.10;99.90;;;;;;5135035;27;20032;-70
2021/12/07 11:59:48;;;;;;;8.23;2.60;;;19.10;99.90;;;;;;5135206;27;20076;-70
2021/12/07 12:02:22;;;;;;;4.63;2.17;;;19.20;99.90;;;;;;5135057;27;20045;-70
2021/12/07 12:04:50;;;;;;;4.88;2.00;;;19.20;99.90;;;;;;5135031;27;20027;-70
2021/12/07 12:07:21;;;;;;;3.45;1.73;;;19.20;99.90;;;;;;5135210;27;20027;-70
2021/12/07 12:09:51;;;;;;;3.20;1.98;;;19.10;99.90;;;;;;5135189;27;20094;-70
2021/12/07 12:12:37;;;;;;;3.77;1.60;;;19.10;99.90;;;;;;5134970;27;20020;-70
2021/12/07 12:15:38;;;;;;;3.28;1.70;;;19.10;99.90;;;;;;5135090;27;20024;-70
2021/12/07 12:18:43;;;;;;;4.07;1.77;;;19.00;99.90;;;;;;5133509;27;20519;-70
2021/12/07 12:21:20;;;;;;;2.35;1.58;;;19.10;99.90;;;;;;5114709;27;20118;-70
2021/12/07 12:24:32;;;;;;;3.88;1.80;;;19.10;99.90;;;;;;5134574;27;20380;-70
2021/12/07 12:27:14;;;;;;;4.13;1.80;;;19.10;99.90;;;;;;5134345;27;20023;-70
2021/12/07 12:29:43;;;;;;;1.65;1.45;;;19.00;99.90;;;;;;5135097;27;20360;-70
2021/12/07 12:32:11;;;;;;;2.80;1.30;;;19.10;99.90;;;;;;5134323;27;20023;-71
2021/12/07 12:34:58;;;;;;;3.10;1.77;;;19.10;99.90;;;;;;5134329;27;20026;-70
2021/12/07 12:37:29;;;;;;;2.63;1.83;;;19.10;99.90;;;;;;5134095;27;20030;-70
2021/12/07 12:39:59;;;;;;;4.47;1.73;;;19.00;99.90;;;;;;5134196;27;20019;-69
2021/12/07 12:42:41;;;;;;;3.03;1.40;;;19.10;99.90;;;;;;5133870;27;20433;-70
2021/12/07 12:45:11;;;;;;;2.83;1.40;;;19.00;99.90;;;;;;5134238;27;20046;-70
2021/12/07 12:47:40;;;;;;;2.40;1.30;;;19.10;99.90;;;;;;5133130;27;20024;-70
2021/12/07 12:50:20;;;;;;;2.13;1.25;;;19.00;99.90;;;;;;5133157;27;20027;-70
2021/12/07 12:52:55;;;;;;;2.15;1.30;;;19.10;99.90;;;;;;5133201;27;20027;-70
2021/12/07 12:55:49;;;;;;;2.45;1.90;;;19.00;99.90;;;;;;5132578;27;20050;-69
2021/12/07 12:58:22;;;;;;;3.92;1.70;;;19.00;99.90;;;;;;5133974;27;20034;-69
2021/12/07 13:01:26;;;;;;;2.38;1.55;;;18.90;99.90;;;;;;5134156;27;20030;-69
2021/12/07 13:04:15;;;;;;;2.38;1.73;;;18.90;99.90;;;;;;5133653;27;20047;-69
2021/12/07 13:06:54;;;;;;;3.08;1.48;;;18.80;99.90;;;;;;5134030;27;20022;-70
2021/12/07 13:17:51;;;;;;;2.83;1.95;;;18.90;99.90;;;;;;5134424;28;20022;-70
2021/12/07 13:20:26;;;;;;;3.25;1.77;;;18.90;99.90;;;;;;5134033;27;20023;-70
2021/12/07 13:23:09;;;;;;;3.00;1.70;;;19.00;99.90;;;;;;5133875;28;20033;-70
2021/12/07 13:25:39;;;;;;;2.25;1.83;;;18.90;99.90;;;;;;5132590;28;20023;-70
2021/12/07 13:28:11;;;;;;;2.75;1.70;;;18.90;99.90;;;;;;5133948;28;20019;-70
2021/12/07 13:31:12;;;;;;;2.22;1.40;;;18.90;99.90;;;;;;5133749;28;20045;-70
2021/12/07 13:33:44;;;;;;;2.47;1.85;;;18.90;99.90;;;;;;5110993;27;20023;-70
2021/12/07 13:36:41;;;;;;;2.70;1.63;;;18.90;99.90;;;;;;5133152;27;20292;-70
2021/12/07 13:39:16;;;;;;;2.38;1.40;;;18.90;99.90;;;;;;5137816;27;20034;-70
2021/12/07 13:42:02;;;;;;;2.17;1.33;;;18.90;99.90;;;;;;5136430;27;20023;-70
2021/12/07 13:44:49;;;;;;;3.60;1.50;;;18.90;99.90;;;;;;5137371;27;20020;-70
2021/12/07 13:47:32;;;;;;;1.90;1.70;;;19.00;99.90;;;;;;5137367;27;20031;-71
2021/12/07 13:50:04;;;;;;;1.83;1.45;;;19.00;99.90;;;;;;5137253;27;20019;-70
2021/12/07 13:52:35;;;;;;;2.95;1.83;;;19.00;99.90;;;;;;5135946;27;20163;-71
2021/12/07 13:55:07;;;;;;;2.25;1.50;;;19.10;99.90;;;;;;5137048;27;20025;-70
2021/12/07 13:57:38;;;;;;;3.90;1.38;;;19.10;99.90;;;;;;5135833;27;20135;-70
2021/12/07 14:00:07;;;;;;;;;;;19.10;99.90;;;;;;5137536;27;20054;-71
2021/12/07 14:02:36;;;;;;;3.80;1.45;;;19.10;99.90;;;;;;5135424;27;19960;-69
2021/12/07 14:05:04;;;;;;;2.35;1.30;;;19.10;99.90;;;;;;5136795;27;20038;-70
2021/12/07 14:07:32;;;;;;;3.78;1.50;;;19.10;99.90;;;;;;5136898;27;20038;-70
2021/12/07 14:10:14;;;;;;;4.45;1.52;;;19.10;99.90;;;;;;5136928;27;20133;-69
2021/12/07 14:12:42;;;;;;;3.28;1.70;;;19.10;99.90;;;;;;5137028;27;20392;-70
2021/12/07 14:15:31;;;;;;;3.00;1.52;;;19.20;99.90;;;;;;5136748;27;20023;-71
2021/12/07 14:18:09;;;;;;;5.97;1.85;;;19.20;99.90;;;;;;5136966;27;20023;-69
2021/12/07 14:20:56;;;;;;;2.33;1.50;;;19.10;99.90;;;;;;5136715;27;20026;-70
2021/12/07 14:23:30;;;;;;;2.83;1.63;;;19.00;99.90;;;;;;5136450;27;20479;-71
2021/12/07 14:26:00;;;;;;;2.47;1.58;;;19.00;99.90;;;;;;5136468;27;20043;-71
2021/12/07 14:28:46;;;;;;;3.42;1.70;;;19.00;99.90;;;;;;5135222;27;20015;-70
2021/12/07 14:31:22;;;;;;;2.05;1.48;;;19.00;99.90;;;;;;5136378;27;20076;-70
2021/12/07 14:33:53;;;;;;;5.57;1.58;;;19.00;99.90;;;;;;5135007;27;20019;-71
2021/12/07 14:36:25;;;;;;;;;;;19.00;99.90;;;;;;5135396;27;20464;-70
2021/12/07 14:38:56;;;;;;;2.38;1.70;;;19.00;99.90;;;;;;5136481;27;19909;-70
2021/12/07 14:41:24;;;;;;;;;;;19.10;99.90;;;;;;5136681;27;20106;-71
2021/12/07 14:43:52;;;;;;;3.90;1.92;;;19.10;99.90;;;;;;5134746;27;19915;-70
2021/12/07 14:46:21;;;;;;;5.68;2.53;;;19.10;99.90;;;;;;5136333;27;20499;-70
2021/12/07 14:48:51;;;;;;;2.67;1.75;;;19.00;99.90;;;;;;5135205;27;20015;-69
2021/12/07 14:51:25;;;;;;;4.10;2.60;;;19.00;99.90;;;;;;5134922;27;20019;-70
2021/12/07 14:53:58;;;;;;;3.33;2.25;;;19.10;99.90;;;;;;5136106;27;20080;-69
2021/12/07 14:56:27;;;;;;;6.35;2.97;;;19.10;99.90;;;;;;5135986;27;20525;-70
2021/12/07 14:58:57;;;;;;;6.43;3.05;;;19.10;99.90;;;;;;5134445;27;20038;-70
2021/12/07 15:01:30;;;;;;;10.95;3.80;;;19.20;99.90;;;;;;5135922;27;20476;-70
2021/12/07 15:04:00;;;;;;;17.25;4.32;;;19.20;99.90;;;;;;5135571;27;20518;-71
2021/12/07 15:06:31;;;;;;;18.33;5.07;;;19.20;99.90;;;;;;5135799;27;20046;-71
2021/12/07 15:09:07;;;;;;;24.15;6.20;;;19.20;99.90;;;;;;5135816;27;20024;-70
2021/12/07 15:11:43;;;;;;;22.38;5.13;;;19.10;99.90;;;;;;5136041;27;20528;-70
2021/12/07 15:14:14;;;;;;;24.15;6.20;;;19.00;99.90;;;;;;5135715;27;20388;-70